Minneola, Florida
Current Conditions -  °F | °C
As of 8:53 AM on Friday 31 Oct 2014 (Local Time) from KLEE Reporting Station
Broken Clouds Broken Clouds  
Wind Chill: 66°   Ceiling: 4600
Heat Index: 66°   Visibility: 10mi
Dew Point: 56°   Wind: 7mph
Humidity: 70%   Direction: 320°NW
Pressure: 29.89"   Gusts: NA
Location:  28.57°N, 81.75°W
Report Text: KLEE 311253Z 32006KT 10SM BKN046 19/13 A2989 RMK AO2 SLP121 T01890133
Loading
Personal Weather Stations






























Interactive Weather Map
Tropical Storm Tracking
New forecast layout! Learn more

10-Day Weather Forecast

Advertisements
Track Severe Weather on mobile